createdAt,value
2019-03-27T00:02:14.231Z,8.05
2019-03-27T00:04:42.238Z,7.95
2019-03-27T00:07:10.294Z,6.85
2019-03-27T00:09:38.287Z,7.15
2019-03-27T00:12:06.357Z,7.58
2019-03-27T00:14:34.360Z,7.90
2019-03-27T00:17:02.363Z,8.70
2019-03-27T00:19:30.348Z,8.65
2019-03-27T00:21:58.339Z,8.43
2019-03-27T00:24:26.236Z,7.78
2019-03-27T00:26:54.209Z,8.45
2019-03-27T00:29:22.237Z,7.50
2019-03-27T00:31:50.191Z,8.60
2019-03-27T00:34:18.175Z,8.23
2019-03-27T00:36:46.148Z,8.10
2019-03-27T00:39:14.190Z,9.48
2019-03-27T00:41:42.171Z,10.25
2019-03-27T00:44:10.127Z,9.50
2019-03-27T00:46:38.101Z,9.65
2019-03-27T00:49:06.080Z,9.18
2019-03-27T00:51:34.031Z,9.88
2019-03-27T00:54:02.052Z,8.83
2019-03-27T00:56:30.008Z,9.73
2019-03-27T00:58:57.963Z,8.50
2019-03-27T01:01:25.927Z,8.98
2019-03-27T01:03:53.924Z,11.20
2019-03-27T01:06:21.911Z,11.50
2019-03-27T01:08:49.877Z,8.68
2019-03-27T01:11:17.908Z,9.95
2019-03-27T01:13:45.887Z,8.85
2019-03-27T01:16:13.840Z,9.35
2019-03-27T01:18:41.783Z,8.95
2019-03-27T01:21:10.169Z,10.70
2019-03-27T01:23:38.190Z,11.30
2019-03-27T01:26:06.174Z,9.08
2019-03-27T01:28:34.162Z,10.23
2019-03-27T01:31:02.191Z,10.82
2019-03-27T01:33:30.182Z,10.20
2019-03-27T01:35:58.607Z,8.98
2019-03-27T01:38:28.887Z,11.08
2019-03-27T01:40:56.390Z,11.08
2019-03-27T01:43:24.383Z,10.60
2019-03-27T01:45:53.441Z,12.20
2019-03-27T01:48:21.691Z,10.40
2019-03-27T01:50:49.651Z,9.43
2019-03-27T01:53:17.633Z,11.00
2019-03-27T01:55:45.596Z,9.80
2019-03-27T01:58:13.573Z,11.25
2019-03-27T02:00:41.654Z,9.20
2019-03-27T02:03:09.957Z,10.98
2019-03-27T02:05:37.949Z,11.88
2019-03-27T02:08:05.933Z,10.95
2019-03-27T02:10:33.925Z,11.22
2019-03-27T02:13:01.914Z,11.22
2019-03-27T02:15:29.936Z,11.55
2019-03-27T02:17:57.913Z,9.80
2019-03-27T02:20:25.899Z,8.50
2019-03-27T02:22:53.888Z,11.50
2019-03-27T02:25:22.286Z,12.78
2019-03-27T02:27:50.263Z,10.82
2019-03-27T02:30:18.232Z,11.48
2019-03-27T02:32:46.332Z,10.75
2019-03-27T02:35:14.301Z,11.53
2019-03-27T02:37:42.329Z,10.68
2019-03-27T02:40:10.384Z,11.08
2019-03-27T02:42:38.385Z,10.70
2019-03-27T02:45:06.377Z,11.70
2019-03-27T02:47:34.376Z,11.10
2019-03-27T02:50:02.474Z,12.90
2019-03-27T02:52:30.440Z,12.85
2019-03-27T02:54:58.435Z,10.82
2019-03-27T02:57:26.410Z,12.20
2019-03-27T02:59:54.424Z,11.43
2019-03-27T03:02:23.285Z,12.33
2019-03-27T03:04:51.293Z,11.10
2019-03-27T03:07:19.302Z,12.93
2019-03-27T03:09:47.355Z,12.90
2019-03-27T03:12:15.364Z,12.58
2019-03-27T03:14:43.369Z,12.82
2019-03-27T03:17:11.364Z,13.00
2019-03-27T03:19:39.350Z,11.33
2019-03-27T03:22:07.354Z,12.73
2019-03-27T03:24:35.343Z,12.47
2019-03-27T03:27:03.357Z,13.15
2019-03-27T03:29:31.339Z,12.37
2019-03-27T03:31:59.331Z,12.98
2019-03-27T03:34:27.358Z,13.08
2019-03-27T03:36:55.666Z,11.95
2019-03-27T03:39:23.664Z,13.18
2019-03-27T03:41:51.735Z,12.53
2019-03-27T03:44:19.744Z,11.95
2019-03-27T03:46:59.445Z,11.50
2019-03-27T03:49:17.513Z,11.25
2019-03-27T03:51:45.497Z,11.63
2019-03-27T03:54:13.775Z,12.78
2019-03-27T03:56:42.946Z,13.08
2019-03-27T03:59:12.267Z,12.18
2019-03-27T04:01:42.177Z,12.40
2019-03-27T04:04:12.433Z,10.72
2019-03-27T04:06:40.419Z,12.25
2019-03-27T04:09:08.388Z,12.53
2019-03-27T04:11:36.384Z,13.35
2019-03-27T04:14:04.387Z,12.65
2019-03-27T04:16:32.329Z,14.60
2019-03-27T04:19:00.620Z,13.10
2019-03-27T04:21:28.590Z,12.30
2019-03-27T04:23:56.588Z,12.50
2019-03-27T04:26:24.551Z,12.25
2019-03-27T04:28:52.516Z,14.13
2019-03-27T04:31:20.506Z,12.73
2019-03-27T04:33:48.476Z,12.20
2019-03-27T04:36:16.468Z,13.68
2019-03-27T04:38:44.499Z,13.40
2019-03-27T04:41:12.767Z,13.40
2019-03-27T04:43:40.804Z,14.13
2019-03-27T04:46:08.739Z,14.38
2019-03-27T04:48:36.742Z,13.55
2019-03-27T04:51:04.748Z,12.07
2019-03-27T04:53:32.807Z,14.25
2019-03-27T04:56:01.177Z,13.38
2019-03-27T04:58:29.180Z,13.30
2019-03-27T05:00:57.168Z,11.60
2019-03-27T05:03:25.124Z,14.03
2019-03-27T05:05:53.134Z,11.88
2019-03-27T05:08:21.131Z,12.50
2019-03-27T05:10:49.138Z,12.60
2019-03-27T05:13:17.174Z,13.00
2019-03-27T05:15:45.164Z,11.85
2019-03-27T05:18:13.139Z,10.85
2019-03-27T05:20:41.139Z,13.15
2019-03-27T05:23:09.119Z,11.90
2019-03-27T05:25:37.118Z,11.28
2019-03-27T05:28:05.138Z,12.60
2019-03-27T05:30:33.104Z,12.58
2019-03-27T05:33:01.097Z,14.55
2019-03-27T05:35:29.070Z,13.20
2019-03-27T05:37:57.068Z,14.23
2019-03-27T05:40:25.102Z,13.55
2019-03-27T05:43:00.616Z,13.40
2019-03-27T05:45:23.355Z,12.43
2019-03-27T05:47:59.343Z,11.93
2019-03-27T05:50:21.183Z,14.47
2019-03-27T05:52:49.231Z,14.20
2019-03-27T05:55:17.232Z,13.98
2019-03-27T05:57:45.223Z,14.70
2019-03-27T06:00:14.115Z,14.00
2019-03-27T06:02:42.126Z,15.93
2019-03-27T06:05:10.131Z,13.43
2019-03-27T06:07:38.110Z,15.55
2019-03-27T06:10:06.211Z,14.60
2019-03-27T06:12:34.214Z,14.53
2019-03-27T06:15:02.209Z,13.83
2019-03-27T06:17:30.211Z,13.15
2019-03-27T06:19:58.182Z,14.73
2019-03-27T06:22:26.189Z,13.72
2019-03-27T06:24:54.155Z,13.43
2019-03-27T06:27:22.154Z,13.20
2019-03-27T06:29:50.193Z,13.22
2019-03-27T06:32:18.611Z,13.00
2019-03-27T06:34:46.640Z,13.30
2019-03-27T06:37:14.606Z,13.43
2019-03-27T06:39:43.021Z,14.30
2019-03-27T06:42:11.029Z,14.15
2019-03-27T06:44:39.012Z,14.47
2019-03-27T06:47:07.001Z,14.47
2019-03-27T06:49:34.981Z,13.22
2019-03-27T06:52:02.964Z,12.50
2019-03-27T06:54:30.945Z,12.93
2019-03-27T06:57:01.126Z,16.00
2019-03-27T06:59:28.877Z,13.20
2019-03-27T07:01:56.851Z,11.97
2019-03-27T07:04:24.808Z,11.28
2019-03-27T07:06:52.790Z,13.35
2019-03-27T07:09:20.794Z,12.98
2019-03-27T07:11:48.794Z,15.08
2019-03-27T07:14:16.804Z,15.13
2019-03-27T07:16:44.772Z,12.33
2019-03-27T07:19:12.772Z,12.40
2019-03-27T07:21:40.753Z,11.88
2019-03-27T07:24:08.779Z,14.05
2019-03-27T07:26:36.753Z,12.50
2019-03-27T07:29:04.739Z,13.35
2019-03-27T07:31:32.755Z,13.60
2019-03-27T07:34:00.753Z,12.65
2019-03-27T07:36:28.715Z,12.40
2019-03-27T07:39:10.248Z,12.95
2019-03-27T07:41:26.580Z,13.43
2019-03-27T07:43:54.560Z,13.60
2019-03-27T07:46:22.559Z,13.78
2019-03-27T07:48:54.135Z,14.35
2019-03-27T07:51:20.367Z,11.80
2019-03-27T07:53:48.326Z,13.18
2019-03-27T07:56:16.691Z,13.15
2019-03-27T07:58:44.680Z,13.58
2019-03-27T08:01:12.692Z,12.23
2019-03-27T08:03:40.646Z,12.55
2019-03-27T08:06:08.631Z,11.73
2019-03-27T08:08:36.654Z,11.73
2019-03-27T08:11:04.936Z,12.05
2019-03-27T08:13:32.957Z,11.18
2019-03-27T08:16:01.071Z,12.95
2019-03-27T08:18:29.022Z,11.60
2019-03-27T08:20:57.030Z,12.00
2019-03-27T08:23:25.050Z,12.30
2019-03-27T08:25:53.035Z,10.88
2019-03-27T08:28:21.036Z,10.45
2019-03-27T08:30:49.013Z,11.70
2019-03-27T08:33:17.023Z,12.37
2019-03-27T08:35:45.008Z,11.45
2019-03-27T08:38:15.107Z,9.80
2019-03-27T08:40:42.884Z,11.65
2019-03-27T08:43:21.148Z,12.10
2019-03-27T08:45:40.740Z,10.90
2019-03-27T08:48:08.774Z,10.55
2019-03-27T08:50:36.774Z,10.28
2019-03-27T08:53:04.813Z,10.78
2019-03-27T08:55:32.763Z,9.30
2019-03-27T08:58:00.735Z,10.30
2019-03-27T09:00:56.937Z,9.13
2019-03-27T09:03:25.337Z,11.38
2019-03-27T09:05:53.355Z,14.05
2019-03-27T09:08:21.356Z,10.88
2019-03-27T09:10:49.350Z,8.15
2019-03-27T09:13:17.497Z,5.70
2019-03-27T09:15:45.528Z,5.85
2019-03-27T09:18:16.730Z,8.50
2019-03-27T09:20:43.315Z,6.55
2019-03-27T09:23:11.338Z,6.17
2019-03-27T09:25:39.336Z,6.05
2019-03-27T09:28:07.322Z,6.12
2019-03-27T09:30:35.281Z,6.08
2019-03-27T09:33:03.286Z,5.17
2019-03-27T09:35:31.308Z,5.90
2019-03-27T09:37:59.732Z,5.90
2019-03-27T09:40:27.737Z,4.20
2019-03-27T09:42:56.595Z,5.20
2019-03-27T09:45:24.610Z,5.67
2019-03-27T09:47:52.665Z,5.15
2019-03-27T09:50:20.751Z,10.38
2019-03-27T09:52:48.754Z,9.15
2019-03-27T09:55:16.760Z,9.90
2019-03-27T09:57:44.757Z,8.30
2019-03-27T10:00:13.000Z,8.95
2019-03-27T10:02:41.099Z,9.40
2019-03-27T10:05:09.313Z,7.85
2019-03-27T10:07:37.260Z,7.70
2019-03-27T10:10:06.870Z,8.05
2019-03-27T10:12:34.862Z,6.85
2019-03-27T10:15:03.026Z,6.95
2019-03-27T10:17:31.070Z,6.08
2019-03-27T10:20:03.589Z,6.50
2019-03-27T10:22:28.918Z,8.18
2019-03-27T10:24:56.940Z,9.73
2019-03-27T10:27:24.913Z,6.03
2019-03-27T10:29:52.945Z,6.60
2019-03-27T10:32:20.925Z,6.17
2019-03-27T10:34:48.929Z,5.37
2019-03-27T10:37:17.028Z,6.87
2019-03-27T10:39:45.015Z,6.40
2019-03-27T10:42:13.034Z,6.83
2019-03-27T10:44:41.043Z,6.85
2019-03-27T10:47:09.039Z,5.90
2019-03-27T10:49:37.047Z,7.37
2019-03-27T10:52:05.049Z,6.08
2019-03-27T10:54:33.042Z,6.12
2019-03-27T10:57:01.078Z,6.10
2019-03-27T10:59:29.070Z,6.92
2019-03-27T11:01:57.064Z,6.37
2019-03-27T11:04:25.025Z,5.70
2019-03-27T11:06:53.039Z,4.60
2019-03-27T11:09:21.043Z,5.17
2019-03-27T11:11:49.103Z,5.47
2019-03-27T11:14:17.393Z,5.80
2019-03-27T11:16:45.412Z,5.73
2019-03-27T11:19:13.387Z,4.97
2019-03-27T11:21:41.416Z,5.40
2019-03-27T11:24:09.411Z,4.73
2019-03-27T11:26:37.517Z,5.83
2019-03-27T11:29:05.559Z,5.90
2019-03-27T11:31:33.673Z,5.73
2019-03-27T11:34:03.373Z,5.63
2019-03-27T11:36:31.370Z,4.20
2019-03-27T11:38:59.393Z,4.40
2019-03-27T11:41:27.474Z,4.33
2019-03-27T11:43:55.497Z,4.42
2019-03-27T11:46:23.578Z,3.85
2019-03-27T11:48:51.913Z,4.62
2019-03-27T11:51:20.225Z,3.87
2019-03-27T11:53:48.675Z,4.05
2019-03-27T11:56:16.705Z,4.35
2019-03-27T11:58:44.744Z,4.58
2019-03-27T12:01:12.786Z,5.42
2019-03-27T12:03:40.768Z,5.10
2019-03-27T12:06:08.807Z,5.90
2019-03-27T12:08:36.831Z,4.80
2019-03-27T12:11:04.894Z,4.35
2019-03-27T12:13:33.214Z,5.20
2019-03-27T12:16:01.239Z,4.58
2019-03-27T12:18:31.897Z,4.37
2019-03-27T12:20:59.830Z,5.70
2019-03-27T12:23:28.002Z,4.45
2019-03-27T12:25:56.011Z,5.55
2019-03-27T12:28:24.039Z,5.70
2019-03-27T12:30:52.038Z,4.50
2019-03-27T12:33:20.098Z,4.23
2019-03-27T12:35:48.498Z,5.57
2019-03-27T12:38:19.628Z,3.80
2019-03-27T12:40:47.677Z,4.77
2019-03-27T12:43:15.778Z,4.40
2019-03-27T12:45:43.826Z,5.03
2019-03-27T12:48:11.849Z,4.80
2019-03-27T12:50:39.833Z,3.00
2019-03-27T12:53:07.934Z,3.40
2019-03-27T12:55:36.002Z,2.77
2019-03-27T12:58:04.167Z,4.00
2019-03-27T13:00:32.301Z,3.67
2019-03-27T13:03:00.594Z,3.77
2019-03-27T13:05:28.630Z,4.60
2019-03-27T13:07:56.885Z,4.07
2019-03-27T13:10:24.925Z,4.50
2019-03-27T13:12:53.023Z,4.90
2019-03-27T13:15:21.045Z,3.90
2019-03-27T13:17:50.298Z,4.63
2019-03-27T13:20:18.540Z,3.70
2019-03-27T13:22:46.565Z,4.27
2019-03-27T13:25:14.726Z,4.47
2019-03-27T13:27:42.811Z,4.53
2019-03-27T13:30:10.858Z,4.97
2019-03-27T13:32:39.151Z,5.03
2019-03-27T13:35:07.375Z,4.65
2019-03-27T13:37:35.692Z,4.40
2019-03-27T13:40:04.171Z,4.28
2019-03-27T13:42:32.203Z,4.00
2019-03-27T13:45:00.375Z,4.95
2019-03-27T13:47:28.370Z,5.15
2019-03-27T13:49:56.704Z,4.40
2019-03-27T13:52:24.812Z,4.78
2019-03-27T13:54:55.283Z,5.05
2019-03-27T13:57:23.379Z,4.85
2019-03-27T13:59:51.465Z,4.30
2019-03-27T14:02:19.511Z,4.05
2019-03-27T14:04:47.612Z,5.42
2019-03-27T14:07:15.701Z,3.85
2019-03-27T14:09:46.011Z,4.80
2019-03-27T14:12:14.024Z,4.28
2019-03-27T14:14:50.179Z,4.55
2019-03-27T14:17:12.241Z,4.33
2019-03-27T14:19:40.254Z,4.08
2019-03-27T14:22:08.302Z,5.10
2019-03-27T14:24:36.762Z,4.60
2019-03-27T14:27:04.741Z,4.92
2019-03-27T14:29:32.750Z,4.22
2019-03-27T14:32:00.817Z,5.95
2019-03-27T14:34:28.824Z,5.05
2019-03-27T14:36:56.878Z,4.90
2019-03-27T14:39:24.924Z,4.10
2019-03-27T14:41:52.965Z,4.83
2019-03-27T14:44:21.089Z,5.40
2019-03-27T14:46:49.081Z,4.80
2019-03-27T14:49:17.163Z,5.03
2019-03-27T14:51:45.195Z,4.65
2019-03-27T14:54:13.192Z,5.45
2019-03-27T14:56:41.240Z,6.40
2019-03-27T14:59:09.286Z,4.92
2019-03-27T15:01:37.557Z,6.80
2019-03-27T15:04:05.580Z,6.15
2019-03-27T15:06:33.596Z,5.92
2019-03-27T15:09:01.626Z,5.55
2019-03-27T15:11:29.772Z,5.15
2019-03-27T15:13:57.842Z,5.00
2019-03-27T15:16:25.865Z,6.17
2019-03-27T15:18:53.923Z,6.22
2019-03-27T15:21:22.362Z,7.05
2019-03-27T15:23:50.419Z,7.03
2019-03-27T15:26:18.492Z,5.50
2019-03-27T15:28:46.526Z,6.72
2019-03-27T15:31:20.441Z,5.47
2019-03-27T15:33:44.559Z,5.95
2019-03-27T15:36:12.547Z,5.87
2019-03-27T15:38:40.596Z,6.80
2019-03-27T15:41:08.621Z,6.33
2019-03-27T15:43:36.663Z,6.17
2019-03-27T15:46:04.729Z,7.05
2019-03-27T15:48:32.761Z,5.85
2019-03-27T15:51:01.378Z,5.85
2019-03-27T15:53:29.375Z,5.70
2019-03-27T15:55:57.410Z,5.80
2019-03-27T15:58:25.445Z,5.30
2019-03-27T16:00:53.518Z,6.60
2019-03-27T16:03:21.498Z,6.97
2019-03-27T16:05:49.539Z,6.97
2019-03-27T16:08:17.552Z,6.15
2019-03-27T16:10:45.660Z,6.15
2019-03-27T16:13:13.689Z,7.55
2019-03-27T16:15:41.733Z,7.12
2019-03-27T16:18:09.792Z,6.55
2019-03-27T16:20:37.803Z,6.15
2019-03-27T16:23:05.864Z,6.92
2019-03-27T16:25:33.938Z,6.20
2019-03-27T16:28:01.982Z,9.70
2019-03-27T16:30:29.997Z,12.68
2019-03-27T16:32:58.093Z,9.30
2019-03-27T16:35:26.207Z,10.03
2019-03-27T16:37:54.254Z,8.15
2019-03-27T16:40:43.739Z,7.55
2019-03-27T16:43:11.960Z,6.40
2019-03-27T16:45:40.029Z,6.42
2019-03-27T16:48:10.568Z,6.60
2019-03-27T16:50:38.605Z,6.45
2019-03-27T16:53:07.169Z,6.25
2019-03-27T16:55:35.236Z,5.50
2019-03-27T16:58:03.322Z,7.08
2019-03-27T17:00:31.469Z,6.30
2019-03-27T17:02:59.806Z,6.00
2019-03-27T17:05:27.906Z,6.40
2019-03-27T17:07:57.071Z,6.15
2019-03-27T17:10:25.800Z,6.75
2019-03-27T17:12:54.518Z,7.28
2019-03-27T17:15:22.558Z,10.58
2019-03-27T17:17:51.187Z,7.55
2019-03-27T17:20:19.790Z,7.28
2019-03-27T17:22:48.099Z,8.78
2019-03-27T17:25:16.725Z,7.83
2019-03-27T17:27:45.858Z,8.70
2019-03-27T17:30:14.880Z,6.53
2019-03-27T17:32:43.945Z,7.62
2019-03-27T17:35:12.620Z,8.18
2019-03-27T17:37:41.668Z,7.83
2019-03-27T17:40:10.012Z,7.45
2019-03-27T17:42:38.173Z,9.13
2019-03-27T17:45:07.122Z,8.70
2019-03-27T17:47:35.417Z,7.53
2019-03-27T17:50:03.719Z,8.85
2019-03-27T17:52:31.929Z,7.92
2019-03-27T17:55:00.050Z,9.93
2019-03-27T17:57:28.248Z,9.00
2019-03-27T17:59:56.370Z,8.05
2019-03-27T18:02:24.503Z,7.80
2019-03-27T18:04:52.704Z,7.92
2019-03-27T18:07:21.184Z,7.70
2019-03-27T18:09:49.802Z,7.83
2019-03-27T18:12:17.908Z,7.40
2019-03-27T18:14:45.969Z,7.47
2019-03-27T18:17:14.112Z,6.17
2019-03-27T18:19:42.177Z,6.95
2019-03-27T18:22:10.289Z,7.12
2019-03-27T18:24:38.787Z,6.75
2019-03-27T18:27:06.864Z,7.70
2019-03-27T18:29:34.967Z,7.40
2019-03-27T18:32:03.225Z,6.95
2019-03-27T18:34:31.354Z,8.25
2019-03-27T18:36:59.508Z,6.97
2019-03-27T18:39:27.598Z,6.35
2019-03-27T18:41:56.128Z,7.12
2019-03-27T18:44:24.239Z,7.20
2019-03-27T18:46:52.827Z,6.72
2019-03-27T18:49:21.014Z,6.05
2019-03-27T18:51:49.199Z,7.20
2019-03-27T18:54:17.415Z,6.87
2019-03-27T18:56:45.918Z,7.37
2019-03-27T18:59:14.015Z,6.83
2019-03-27T19:01:42.136Z,7.83
2019-03-27T19:04:10.372Z,7.45
2019-03-27T19:06:38.532Z,5.92
2019-03-27T19:09:07.727Z,7.03
2019-03-27T19:11:35.878Z,8.33
2019-03-27T19:14:04.117Z,6.42
2019-03-27T19:16:32.685Z,7.22
2019-03-27T19:19:00.850Z,9.80
2019-03-27T19:21:29.042Z,7.95
2019-03-27T19:23:57.236Z,6.85
2019-03-27T19:26:25.295Z,6.25
2019-03-27T19:28:53.932Z,5.80
2019-03-27T19:31:22.317Z,7.17
2019-03-27T19:33:50.614Z,7.03
2019-03-27T19:36:18.819Z,6.47
2019-03-27T19:38:46.962Z,8.60
2019-03-27T19:41:15.565Z,8.60
2019-03-27T19:43:43.919Z,7.87
2019-03-27T19:46:12.526Z,6.92
2019-03-27T19:48:40.811Z,8.45
2019-03-27T19:51:11.313Z,6.85
2019-03-27T19:53:39.166Z,6.97
2019-03-27T19:56:07.462Z,7.60
2019-03-27T19:58:35.587Z,7.83
2019-03-27T20:01:05.217Z,7.28
2019-03-27T20:03:34.792Z,8.35
2019-03-27T20:06:03.422Z,7.95
2019-03-27T20:08:31.668Z,7.40
2019-03-27T20:10:59.907Z,7.58
2019-03-27T20:13:28.604Z,8.15
2019-03-27T20:15:56.742Z,8.35
2019-03-27T20:18:24.905Z,8.13
2019-03-27T20:20:53.077Z,7.65
2019-03-27T20:23:21.644Z,8.25
2019-03-27T20:25:49.908Z,7.60
2019-03-27T20:28:18.037Z,7.58
2019-03-27T20:30:46.715Z,8.28
2019-03-27T20:33:15.278Z,7.47
2019-03-27T20:35:43.463Z,7.65
2019-03-27T20:38:11.707Z,7.80
2019-03-27T20:40:39.882Z,7.47
2019-03-27T20:43:08.043Z,7.55
2019-03-27T20:45:36.633Z,8.48
2019-03-27T20:48:04.871Z,7.35
2019-03-27T20:50:33.056Z,8.83
2019-03-27T20:53:01.309Z,8.53
2019-03-27T20:55:30.857Z,8.23
2019-03-27T20:58:00.120Z,7.35
2019-03-27T21:00:28.207Z,6.37
2019-03-27T21:02:56.314Z,7.33
2019-03-27T21:05:24.718Z,8.03
2019-03-27T21:07:52.793Z,7.20
2019-03-27T21:10:20.939Z,8.33
2019-03-27T21:12:48.997Z,8.23
2019-03-27T21:15:17.059Z,8.20
2019-03-27T21:17:45.178Z,7.75
2019-03-27T21:20:13.292Z,8.85
2019-03-27T21:22:41.356Z,9.35
2019-03-27T21:25:09.936Z,8.50
2019-03-27T21:27:39.242Z,8.60
2019-03-27T21:30:08.948Z,8.78
2019-03-27T21:32:37.105Z,8.40
2019-03-27T21:35:05.621Z,10.40
2019-03-27T21:37:33.805Z,11.90
2019-03-27T21:40:01.899Z,10.20
2019-03-27T21:42:29.972Z,10.18
2019-03-27T21:44:58.076Z,10.65
2019-03-27T21:47:26.206Z,9.33
2019-03-27T21:49:54.776Z,8.85
2019-03-27T21:52:22.833Z,7.53
2019-03-27T21:54:51.391Z,9.20
2019-03-27T21:57:19.777Z,8.25
2019-03-27T21:59:47.843Z,8.60
2019-03-27T22:02:16.339Z,8.35
2019-03-27T22:04:44.372Z,8.28
2019-03-27T22:07:12.440Z,7.85
2019-03-27T22:09:40.784Z,7.72
2019-03-27T22:12:09.058Z,8.00
2019-03-27T22:14:37.086Z,7.47
2019-03-27T22:17:05.112Z,7.45
2019-03-27T22:19:33.175Z,9.08
2019-03-27T22:22:01.210Z,7.37
2019-03-27T22:24:29.250Z,8.85
2019-03-27T22:26:57.367Z,8.30
2019-03-27T22:29:25.678Z,8.18
2019-03-27T22:31:53.688Z,8.08
2019-03-27T22:34:21.987Z,7.97
2019-03-27T22:36:50.031Z,8.35
2019-03-27T22:39:18.050Z,8.10
2019-03-27T22:41:46.061Z,8.15
2019-03-27T22:44:14.070Z,7.90
2019-03-27T22:46:42.098Z,7.30
2019-03-27T22:49:10.138Z,7.50
2019-03-27T22:51:38.162Z,7.72
2019-03-27T22:54:06.186Z,7.75
2019-03-27T22:56:34.175Z,7.60
2019-03-27T22:59:02.219Z,8.88
2019-03-27T23:01:42.362Z,9.13
2019-03-27T23:04:10.422Z,8.10
2019-03-27T23:06:38.390Z,7.67
2019-03-27T23:09:06.406Z,7.80
2019-03-27T23:11:34.424Z,7.62
2019-03-27T23:14:02.445Z,8.88
2019-03-27T23:16:30.434Z,7.95
2019-03-27T23:18:58.444Z,7.72
2019-03-27T23:21:26.442Z,7.53
2019-03-27T23:23:54.461Z,8.50
2019-03-27T23:26:22.844Z,7.55
2019-03-27T23:28:50.824Z,7.42
2019-03-27T23:31:18.818Z,6.80
2019-03-27T23:33:46.788Z,6.80
2019-03-27T23:36:14.771Z,7.85
2019-03-27T23:38:42.768Z,7.25
2019-03-27T23:41:10.795Z,8.18
2019-03-27T23:43:38.801Z,7.10
2019-03-27T23:46:06.809Z,7.50
2019-03-27T23:48:34.795Z,8.15
2019-03-27T23:51:02.829Z,7.17
2019-03-27T23:53:30.843Z,7.70
2019-03-27T23:55:59.209Z,7.12
2019-03-27T23:58:28.154Z,6.55
